WSSS/SIN METAR and TAF weather

Enter ICAO airport designator
Station Type Date Time Source
WSSS METAR 2019/06/16 20:30 UTC NOAA

WSSS 162030Z VRB01KT 9999 FEW016 BKN300 28/26 Q1009 NOSIG


Station Type Date Time Source
WSSS Decoded METAR 2019/06/16 20:30 UTC NOAA

Singapore / Changi Airport, Singapore (WSSS) 01-22N 103-59E 16M
Jun 16, 2019 - 04:30 PM EDT / 2019.06.16 2030 UTC
Wind: Variable at 1 MPH (1 KT):0
Visibility: greater than 7 mile(s):0
Sky conditions: mostly cloudy
Temperature: 82 F (28 C)
Dew Point: 78 F (26 C)
Relative Humidity: 88%
Pressure (altimeter): 29.80 in. Hg (1009 hPa)
ob: WSSS 162030Z VRB01KT 9999 FEW016 BKN300 28/26 Q1009 NOSIG
cycle: 20

Station Type Date Time Source
WSSS TAF 2019/06/16 18:11 UTC NOAA

TAF WSSS 161700Z 1618/1800 17009KT 9999 FEW015 SCT020
TEMPO 1702/1706 3000 TSRA FEW012CB BKN015

Example: see airport list